createdAt,value
2023-01-22T00:02:28.101Z,61.08
2023-01-22T00:05:01.659Z,61.13
2023-01-22T00:07:35.056Z,61.14
2023-01-22T00:10:10.420Z,61.26
2023-01-22T00:12:44.360Z,61.31
2023-01-22T00:15:19.223Z,61.43
2023-01-22T00:17:53.821Z,61.41
2023-01-22T00:20:27.349Z,61.41
2023-01-22T00:23:00.953Z,61.29
2023-01-22T00:25:34.553Z,61.37
2023-01-22T00:28:08.190Z,61.41
2023-01-22T00:30:41.852Z,61.32
2023-01-22T00:33:15.195Z,61.39
2023-01-22T00:35:48.704Z,61.40
2023-01-22T00:38:22.296Z,61.31
2023-01-22T00:40:55.571Z,61.33
2023-01-22T00:43:29.021Z,61.46
2023-01-22T00:46:03.112Z,61.52
2023-01-22T00:48:37.005Z,61.44
2023-01-22T00:51:12.641Z,61.41
2023-01-22T00:53:46.489Z,61.45
2023-01-22T00:56:20.157Z,61.45
2023-01-22T00:58:53.668Z,61.56
2023-01-22T01:01:27.237Z,61.57
2023-01-22T01:04:00.686Z,61.67
2023-01-22T01:06:34.145Z,61.81
2023-01-22T01:09:07.680Z,61.89
2023-01-22T01:11:41.554Z,61.82
2023-01-22T01:14:14.914Z,61.92
2023-01-22T01:16:49.816Z,62.01
2023-01-22T01:19:23.532Z,62.09
2023-01-22T01:21:57.010Z,62.14
2023-01-22T01:24:30.671Z,62.28
2023-01-22T01:27:04.187Z,62.33
2023-01-22T01:29:37.225Z,62.38
2023-01-22T01:32:10.751Z,62.43
2023-01-22T01:34:45.728Z,62.42
2023-01-22T01:37:19.231Z,62.51
2023-01-22T01:39:53.348Z,62.49
2023-01-22T01:42:29.632Z,62.40
2023-01-22T01:45:21.778Z,62.51
2023-01-22T01:47:58.906Z,62.51
2023-01-22T01:50:32.759Z,62.46
2023-01-22T01:53:07.479Z,62.42
2023-01-22T01:55:42.988Z,62.50
2023-01-22T01:58:20.547Z,62.39
2023-01-22T02:00:57.551Z,62.38
2023-01-22T02:03:32.072Z,62.37
2023-01-22T02:06:06.280Z,62.55
2023-01-22T02:08:39.838Z,62.78
2023-01-22T02:11:13.439Z,62.79
2023-01-22T02:13:51.484Z,62.84
2023-01-22T02:16:26.071Z,62.87
2023-01-22T02:19:00.965Z,62.88
2023-01-22T02:21:38.498Z,62.90
2023-01-22T02:24:14.303Z,63.13
2023-01-22T02:26:48.235Z,63.07
2023-01-22T02:29:23.228Z,63.18
2023-01-22T02:31:56.701Z,63.23
2023-01-22T02:34:30.397Z,63.21
2023-01-22T02:37:05.424Z,63.16
2023-01-22T02:39:38.698Z,63.13
2023-01-22T02:42:13.178Z,63.11
2023-01-22T02:44:47.255Z,63.24
2023-01-22T02:47:20.994Z,63.26
2023-01-22T02:49:54.462Z,63.38
2023-01-22T02:52:27.982Z,63.48
2023-01-22T02:55:01.349Z,63.54
2023-01-22T02:57:34.756Z,63.64
2023-01-22T03:00:11.177Z,63.80
2023-01-22T03:02:44.234Z,63.85
2023-01-22T03:05:18.854Z,63.56
2023-01-22T03:07:53.246Z,63.77
2023-01-22T03:10:26.482Z,63.86
2023-01-22T03:13:17.203Z,63.95
2023-01-22T03:16:08.473Z,63.97
2023-01-22T03:18:59.720Z,63.97
2023-01-22T03:21:33.358Z,63.96
2023-01-22T03:24:08.524Z,63.94
2023-01-22T03:26:43.574Z,64.14
2023-01-22T03:29:17.156Z,64.11
2023-01-22T03:31:52.199Z,64.16
2023-01-22T03:34:27.063Z,64.16
2023-01-22T03:37:01.219Z,64.22
2023-01-22T03:39:36.073Z,64.30
2023-01-22T03:42:09.723Z,64.21
2023-01-22T03:44:44.242Z,64.34
2023-01-22T03:47:19.606Z,64.43
2023-01-22T03:49:53.042Z,64.41
2023-01-22T03:52:26.634Z,64.34
2023-01-22T03:55:00.160Z,64.33
2023-01-22T03:57:33.986Z,64.43
2023-01-22T04:00:10.122Z,64.34
2023-01-22T04:02:49.418Z,64.32
2023-01-22T04:05:24.359Z,64.45
2023-01-22T04:07:58.893Z,64.43
2023-01-22T04:10:33.919Z,64.36
2023-01-22T04:13:08.613Z,64.35
2023-01-22T04:15:46.092Z,64.37
2023-01-22T04:18:24.082Z,64.28
2023-01-22T04:21:05.980Z,64.37
2023-01-22T04:23:44.033Z,64.39
2023-01-22T04:26:17.611Z,64.49
2023-01-22T04:28:51.530Z,64.64
2023-01-22T04:31:26.755Z,64.66
2023-01-22T04:34:04.731Z,64.61
2023-01-22T04:36:39.749Z,64.60
2023-01-22T04:39:12.929Z,64.56
2023-01-22T04:41:46.235Z,64.56
2023-01-22T04:44:19.757Z,64.58
2023-01-22T04:46:52.938Z,64.62
2023-01-22T04:49:26.710Z,64.66
2023-01-22T04:52:00.328Z,64.68
2023-01-22T04:54:35.001Z,64.63
2023-01-22T04:57:08.545Z,64.63
2023-01-22T04:59:42.059Z,64.54
2023-01-22T05:02:15.722Z,64.62
2023-01-22T05:04:49.789Z,64.62
2023-01-22T05:07:23.419Z,64.58
2023-01-22T05:09:57.033Z,64.62
2023-01-22T05:12:30.336Z,64.80
2023-01-22T05:15:07.257Z,64.82
2023-01-22T05:17:39.375Z,64.80
2023-01-22T05:20:14.245Z,64.92
2023-01-22T05:22:49.777Z,64.96
2023-01-22T05:25:24.819Z,64.97
2023-01-22T05:27:58.343Z,64.92
2023-01-22T05:30:34.557Z,64.80
2023-01-22T05:33:11.398Z,64.60
2023-01-22T05:35:45.368Z,64.81
2023-01-22T05:38:19.578Z,64.89
2023-01-22T05:40:53.243Z,64.92
2023-01-22T05:43:27.350Z,65.01
2023-01-22T05:46:03.807Z,64.97
2023-01-22T05:48:54.997Z,64.93
2023-01-22T05:51:32.244Z,65.01
2023-01-22T05:54:05.498Z,65.07
2023-01-22T05:56:40.737Z,64.99
2023-01-22T05:59:15.254Z,64.94
2023-01-22T06:01:50.100Z,64.95
2023-01-22T06:04:24.541Z,65.03
2023-01-22T06:06:57.972Z,65.01
2023-01-22T06:09:33.109Z,65.05
2023-01-22T06:12:07.601Z,64.98
2023-01-22T06:14:41.164Z,64.86
2023-01-22T06:17:14.606Z,64.80
2023-01-22T06:19:49.525Z,64.78
2023-01-22T06:22:23.836Z,64.85
2023-01-22T06:24:58.942Z,64.89
2023-01-22T06:27:34.097Z,64.97
2023-01-22T06:30:11.094Z,65.00
2023-01-22T06:32:44.279Z,64.92
2023-01-22T06:35:19.465Z,64.74
2023-01-22T06:37:53.410Z,64.65
2023-01-22T06:40:28.683Z,64.62
2023-01-22T06:43:04.747Z,64.60
2023-01-22T06:45:39.762Z,64.57
2023-01-22T06:48:14.201Z,64.60
2023-01-22T06:50:47.524Z,64.52
2023-01-22T06:53:20.988Z,64.42
2023-01-22T06:55:55.925Z,64.32
2023-01-22T06:58:29.911Z,64.26
2023-01-22T07:01:04.553Z,64.30
2023-01-22T07:03:37.942Z,64.28
2023-01-22T07:06:13.042Z,64.36
2023-01-22T07:08:47.884Z,64.40
2023-01-22T07:11:21.314Z,64.47
2023-01-22T07:13:54.840Z,64.44
2023-01-22T07:16:28.576Z,64.61
2023-01-22T07:19:02.936Z,64.70
2023-01-22T07:21:36.474Z,64.68
2023-01-22T07:24:11.133Z,64.79
2023-01-22T07:26:46.451Z,64.85
2023-01-22T07:29:19.687Z,64.79
2023-01-22T07:31:53.323Z,64.79
2023-01-22T07:34:26.903Z,64.87
2023-01-22T07:37:02.124Z,64.87
2023-01-22T07:39:35.736Z,64.78
2023-01-22T07:42:09.356Z,64.67
2023-01-22T07:44:42.989Z,64.65
2023-01-22T07:47:18.081Z,64.64
2023-01-22T07:49:51.283Z,64.64
2023-01-22T07:52:24.516Z,64.63
2023-01-22T07:54:57.965Z,64.55
2023-01-22T07:57:31.700Z,64.47
2023-01-22T08:00:05.629Z,64.50
2023-01-22T08:02:42.268Z,64.50
2023-01-22T08:05:16.515Z,64.45
2023-01-22T08:07:50.532Z,64.49
2023-01-22T08:10:23.945Z,64.45
2023-01-22T08:12:57.326Z,64.38
2023-01-22T08:15:31.624Z,64.42
2023-01-22T08:18:05.322Z,64.50
2023-01-22T08:20:39.048Z,64.50
2023-01-22T08:23:13.726Z,64.43
2023-01-22T08:25:47.305Z,64.44
2023-01-22T08:28:20.646Z,64.34
2023-01-22T08:30:55.794Z,64.35
2023-01-22T08:33:30.101Z,64.37
2023-01-22T08:36:03.923Z,64.33
2023-01-22T08:38:37.528Z,64.24
2023-01-22T08:41:11.131Z,64.17
2023-01-22T08:43:44.663Z,64.14
2023-01-22T08:46:18.425Z,64.25
2023-01-22T08:48:52.111Z,64.30
2023-01-22T08:51:26.805Z,64.26
2023-01-22T08:54:00.347Z,64.39
2023-01-22T08:56:33.958Z,64.46
2023-01-22T08:59:07.154Z,64.44
2023-01-22T09:01:40.484Z,64.44
2023-01-22T09:04:13.906Z,64.52
2023-01-22T09:06:47.750Z,64.55
2023-01-22T09:09:21.152Z,64.51
2023-01-22T09:11:54.533Z,64.45
2023-01-22T09:14:28.225Z,64.43
2023-01-22T09:17:01.740Z,64.53
2023-01-22T09:19:35.307Z,64.43
2023-01-22T09:22:08.888Z,64.42
2023-01-22T09:24:42.245Z,64.40
2023-01-22T09:27:15.422Z,64.34
2023-01-22T09:29:48.986Z,64.32
2023-01-22T09:32:22.045Z,64.15
2023-01-22T09:34:55.187Z,64.21
2023-01-22T09:37:28.895Z,64.27
2023-01-22T09:40:01.952Z,64.31
2023-01-22T09:42:38.334Z,64.28
2023-01-22T09:45:15.723Z,64.23
2023-01-22T09:47:52.155Z,64.17
2023-01-22T09:50:27.571Z,64.09
2023-01-22T09:53:03.209Z,64.12
2023-01-22T09:55:39.517Z,64.19
2023-01-22T09:58:16.046Z,64.22
2023-01-22T10:00:53.812Z,64.22
2023-01-22T10:03:27.267Z,64.26
2023-01-22T10:06:02.370Z,64.10
2023-01-22T10:08:38.042Z,64.03
2023-01-22T10:11:12.052Z,63.99
2023-01-22T10:13:45.441Z,64.15
2023-01-22T10:16:18.553Z,64.15
2023-01-22T10:18:56.872Z,64.18
2023-01-22T10:21:32.222Z,64.15
2023-01-22T10:24:06.030Z,64.09
2023-01-22T10:26:41.990Z,64.18
2023-01-22T10:29:18.408Z,64.01
2023-01-22T10:31:54.027Z,63.92
2023-01-22T10:34:31.195Z,64.12
2023-01-22T10:37:07.062Z,64.12
2023-01-22T10:39:44.304Z,64.07
2023-01-22T10:42:20.759Z,64.01
2023-01-22T10:44:57.901Z,64.03
2023-01-22T10:47:31.105Z,64.03
2023-01-22T10:50:06.825Z,64.00
2023-01-22T10:55:26.386Z,63.88
2023-01-22T10:58:03.009Z,63.78
2023-01-22T11:00:50.528Z,63.88
2023-01-22T11:03:22.359Z,63.98
2023-01-22T11:05:58.953Z,64.02
2023-01-22T11:08:36.207Z,63.95
2023-01-22T11:11:12.218Z,64.00
2023-01-22T11:13:56.693Z,63.95
2023-01-22T11:16:33.105Z,63.92
2023-01-22T11:19:10.524Z,63.76
2023-01-22T11:21:46.593Z,63.78
2023-01-22T11:24:22.195Z,63.76
2023-01-22T11:27:08.023Z,63.65
2023-01-22T11:30:00.036Z,63.42
2023-01-22T11:32:48.635Z,63.56
2023-01-22T11:35:28.991Z,63.70
2023-01-22T11:38:13.551Z,63.82
2023-01-22T11:40:56.214Z,63.83
2023-01-22T11:43:36.558Z,63.82
2023-01-22T11:46:27.269Z,63.74
2023-01-22T11:49:11.971Z,63.67
2023-01-22T11:51:49.437Z,63.64
2023-01-22T11:54:30.309Z,63.43
2023-01-22T11:57:11.568Z,63.52
2023-01-22T11:59:51.715Z,63.68
2023-01-22T12:02:33.390Z,63.73
2023-01-22T12:05:20.999Z,63.68
2023-01-22T12:07:59.611Z,63.73
2023-01-22T12:11:12.526Z,63.82
2023-01-22T12:14:10.796Z,63.75
2023-01-22T12:16:48.674Z,63.73
2023-01-22T12:19:57.611Z,63.77
2023-01-22T12:22:35.725Z,63.56
2023-01-22T12:25:17.878Z,63.66
2023-01-22T12:27:55.043Z,63.79
2023-01-22T12:30:31.122Z,63.93
2023-01-22T12:33:05.598Z,63.83
2023-01-22T12:35:38.994Z,63.81
2023-01-22T12:38:17.182Z,63.82
2023-01-22T12:41:07.517Z,63.88
2023-01-22T12:43:44.170Z,63.91
2023-01-22T12:46:21.851Z,63.97
2023-01-22T12:48:55.248Z,63.99
2023-01-22T12:51:37.577Z,63.94
2023-01-22T12:54:25.041Z,63.85
2023-01-22T12:57:00.870Z,63.66
2023-01-22T12:59:43.491Z,63.71
2023-01-22T13:02:28.467Z,63.77
2023-01-22T13:05:11.456Z,63.89
2023-01-22T13:07:45.143Z,63.95
2023-01-22T13:10:30.166Z,64.15
2023-01-22T13:13:05.221Z,64.27
2023-01-22T13:15:40.014Z,64.39
2023-01-22T13:18:20.690Z,64.40
2023-01-22T13:20:57.667Z,64.51
2023-01-22T13:23:32.402Z,64.66
2023-01-22T13:26:06.842Z,64.76
2023-01-22T13:28:42.227Z,64.78
2023-01-22T13:31:19.351Z,64.89
2023-01-22T13:34:05.687Z,65.05
2023-01-22T13:36:42.417Z,65.10
2023-01-22T13:39:21.372Z,65.26
2023-01-22T13:41:56.003Z,65.43
2023-01-22T13:44:31.929Z,65.62
2023-01-22T13:47:06.418Z,65.62
2023-01-22T13:49:44.441Z,65.69
2023-01-22T13:52:20.465Z,65.82
2023-01-22T13:54:56.836Z,65.84
2023-01-22T13:57:30.178Z,65.98
2023-01-22T14:00:04.937Z,66.10
2023-01-22T14:02:38.974Z,66.25
2023-01-22T14:05:21.799Z,66.37
2023-01-22T14:08:06.911Z,66.51
2023-01-22T14:10:42.533Z,66.52
2023-01-22T14:13:19.285Z,66.49
2023-01-22T14:15:59.510Z,66.46
2023-01-22T14:18:32.632Z,66.40
2023-01-22T14:21:06.899Z,66.44
2023-01-22T14:23:41.986Z,66.40
2023-01-22T14:26:15.136Z,66.44
2023-01-22T14:28:48.307Z,66.58
2023-01-22T14:31:21.973Z,66.74
2023-01-22T14:33:55.366Z,66.79
2023-01-22T14:36:28.710Z,66.83
2023-01-22T14:39:01.860Z,66.94
2023-01-22T14:41:35.189Z,67.04
2023-01-22T14:44:08.670Z,67.13
2023-01-22T14:46:42.963Z,67.19
2023-01-22T14:49:16.139Z,67.21
2023-01-22T14:51:49.246Z,67.13
2023-01-22T14:54:22.592Z,67.13
2023-01-22T14:56:56.589Z,67.08
2023-01-22T14:59:29.631Z,67.07
2023-01-22T15:02:02.854Z,67.11
2023-01-22T15:04:36.412Z,67.15
2023-01-22T15:07:28.441Z,67.18
2023-01-22T15:10:01.418Z,67.20
2023-01-22T15:12:35.420Z,67.26
2023-01-22T15:15:10.935Z,67.20
2023-01-22T15:17:44.193Z,67.05
2023-01-22T15:20:20.723Z,67.04
2023-01-22T15:22:54.073Z,67.20
2023-01-22T15:25:27.785Z,67.37
2023-01-22T15:28:01.245Z,67.45
2023-01-22T15:30:34.608Z,67.40
2023-01-22T15:33:07.870Z,67.29
2023-01-22T15:35:41.389Z,67.31
2023-01-22T15:38:14.658Z,67.40
2023-01-22T15:40:48.208Z,67.42
2023-01-22T15:43:21.727Z,67.50
2023-01-22T15:45:57.755Z,67.60
2023-01-22T15:48:31.232Z,67.63
2023-01-22T15:51:13.131Z,67.63
2023-01-22T15:53:50.977Z,67.74
2023-01-22T15:56:24.195Z,67.86
2023-01-22T15:58:58.396Z,67.76
2023-01-22T16:01:31.987Z,67.89
2023-01-22T16:04:05.776Z,68.00
2023-01-22T16:06:39.296Z,68.00
2023-01-22T16:09:12.640Z,68.01
2023-01-22T16:11:46.100Z,68.00
2023-01-22T16:14:20.153Z,67.90
2023-01-22T16:16:53.739Z,67.91
2023-01-22T16:19:28.295Z,67.94
2023-01-22T16:22:01.595Z,67.91
2023-01-22T16:24:35.045Z,67.89
2023-01-22T16:27:08.099Z,67.91
2023-01-22T16:29:41.782Z,68.01
2023-01-22T16:32:15.376Z,67.98
2023-01-22T16:34:48.986Z,67.98
2023-01-22T16:37:22.498Z,68.01
2023-01-22T16:39:56.142Z,68.14
2023-01-22T16:42:29.720Z,68.33
2023-01-22T16:45:03.320Z,68.46
2023-01-22T16:47:36.681Z,68.52
2023-01-22T16:50:12.394Z,68.54
2023-01-22T16:52:48.115Z,68.57
2023-01-22T16:55:21.643Z,68.61
2023-01-22T16:57:55.164Z,68.75
2023-01-22T17:00:28.434Z,68.85
2023-01-22T17:03:01.922Z,68.86
2023-01-22T17:05:35.569Z,68.85
2023-01-22T17:08:09.412Z,68.87
2023-01-22T17:10:42.634Z,68.86
2023-01-22T17:13:16.167Z,68.93
2023-01-22T17:15:52.030Z,68.94
2023-01-22T17:18:26.279Z,69.08
2023-01-22T17:21:06.681Z,69.17
2023-01-22T17:23:39.753Z,69.26
2023-01-22T17:26:15.482Z,69.26
2023-01-22T17:28:49.375Z,69.20
2023-01-22T17:31:24.751Z,69.07
2023-01-22T17:33:59.216Z,69.06
2023-01-22T17:36:46.390Z,68.91
2023-01-22T17:39:21.283Z,68.79
2023-01-22T17:41:54.754Z,68.82
2023-01-22T17:44:47.808Z,68.83
2023-01-22T17:47:21.280Z,68.79
2023-01-22T17:50:02.473Z,68.86
2023-01-22T17:52:36.869Z,68.93
2023-01-22T17:55:12.201Z,69.05
2023-01-22T17:57:45.468Z,69.21
2023-01-22T18:00:21.383Z,69.29
2023-01-22T18:02:54.994Z,69.44
2023-01-22T18:05:29.335Z,69.52
2023-01-22T18:08:02.953Z,69.62
2023-01-22T18:10:37.874Z,69.67
2023-01-22T18:13:11.269Z,69.64
2023-01-22T18:15:48.974Z,69.63
2023-01-22T18:18:20.857Z,69.59
2023-01-22T18:20:55.892Z,69.41
2023-01-22T18:23:28.783Z,69.52
2023-01-22T18:26:05.536Z,69.58
2023-01-22T18:28:39.673Z,69.66
2023-01-22T18:31:16.202Z,69.77
2023-01-22T18:33:49.654Z,69.88
2023-01-22T18:36:25.466Z,69.92
2023-01-22T18:39:01.292Z,69.94
2023-01-22T18:41:35.026Z,70.03
2023-01-22T18:44:10.057Z,70.16
2023-01-22T18:46:45.629Z,70.32
2023-01-22T18:49:20.308Z,70.29
2023-01-22T18:51:55.281Z,70.34
2023-01-22T18:54:31.726Z,70.42
2023-01-22T18:57:05.434Z,70.40
2023-01-22T18:59:38.720Z,70.23
2023-01-22T19:02:14.985Z,70.28
2023-01-22T19:04:48.510Z,70.23
2023-01-22T19:07:21.887Z,70.32
2023-01-22T19:09:56.255Z,70.37
2023-01-22T19:12:29.714Z,70.32
2023-01-22T19:15:03.271Z,70.25
2023-01-22T19:17:36.821Z,70.19
2023-01-22T19:20:15.115Z,70.15
2023-01-22T19:22:48.776Z,70.16
2023-01-22T19:25:22.423Z,70.16
2023-01-22T19:27:56.373Z,70.23
2023-01-22T19:30:29.935Z,70.18
2023-01-22T19:33:03.358Z,70.14
2023-01-22T19:35:36.930Z,70.02
2023-01-22T19:38:10.680Z,70.01
2023-01-22T19:40:47.285Z,69.98
2023-01-22T19:43:20.800Z,69.93
2023-01-22T19:45:54.156Z,70.01
2023-01-22T19:48:28.004Z,70.07
2023-01-22T19:51:02.322Z,70.06
2023-01-22T19:53:48.956Z,70.05
2023-01-22T19:56:24.614Z,70.07
2023-01-22T19:59:00.473Z,70.16
2023-01-22T20:01:34.148Z,70.21
2023-01-22T20:04:38.233Z,70.19
2023-01-22T20:07:13.091Z,70.24
2023-01-22T20:09:46.622Z,70.25
2023-01-22T20:12:20.006Z,70.29
2023-01-22T20:14:53.380Z,70.47
2023-01-22T20:17:26.882Z,70.52
2023-01-22T20:20:00.488Z,70.42
2023-01-22T20:22:34.480Z,70.19
2023-01-22T20:25:11.313Z,70.07
2023-01-22T20:27:45.166Z,70.13
2023-01-22T20:30:20.284Z,70.13
2023-01-22T20:32:56.434Z,70.34
2023-01-22T20:35:29.132Z,70.54
2023-01-22T20:38:02.756Z,70.56
2023-01-22T20:40:36.399Z,70.60
2023-01-22T20:43:09.873Z,70.65
2023-01-22T20:45:43.360Z,70.56
2023-01-22T20:48:17.251Z,70.43
2023-01-22T20:50:50.841Z,70.22
2023-01-22T20:53:24.253Z,70.31
2023-01-22T20:56:05.804Z,70.46
2023-01-22T20:58:39.565Z,70.47
2023-01-22T21:01:16.001Z,70.34
2023-01-22T21:03:50.593Z,70.31
2023-01-22T21:06:24.716Z,70.23
2023-01-22T21:08:58.945Z,70.28
2023-01-22T21:11:33.833Z,70.20
2023-01-22T21:14:08.268Z,70.05
2023-01-22T21:16:44.498Z,70.01
2023-01-22T21:19:23.745Z,69.91
2023-01-22T21:21:57.532Z,69.86
2023-01-22T21:24:31.222Z,69.73
2023-01-22T21:27:04.379Z,69.80
2023-01-22T21:29:38.067Z,69.76
2023-01-22T21:32:11.772Z,69.71
2023-01-22T21:34:45.135Z,69.65
2023-01-22T21:37:18.942Z,69.92
2023-01-22T21:39:52.895Z,70.11
2023-01-22T21:42:43.536Z,70.11
2023-01-22T21:45:34.385Z,70.06
2023-01-22T21:48:09.906Z,70.18
2023-01-22T21:50:43.899Z,70.34
2023-01-22T21:53:17.365Z,70.50
2023-01-22T21:55:55.049Z,70.55
2023-01-22T21:58:27.159Z,70.51
2023-01-22T22:01:06.913Z,70.35
2023-01-22T22:03:40.604Z,70.39
2023-01-22T22:06:15.374Z,70.37
2023-01-22T22:08:48.940Z,70.31
2023-01-22T22:11:22.197Z,70.14
2023-01-22T22:13:56.706Z,69.95
2023-01-22T22:16:30.321Z,69.76
2023-01-22T22:19:03.820Z,69.65
2023-01-22T22:21:37.902Z,69.60
2023-01-22T22:24:12.484Z,69.71
2023-01-22T22:26:45.874Z,69.60
2023-01-22T22:29:19.739Z,69.54
2023-01-22T22:31:53.329Z,69.64
2023-01-22T22:34:26.806Z,69.66
2023-01-22T22:37:00.327Z,69.83
2023-01-22T22:39:33.784Z,69.84
2023-01-22T22:42:07.356Z,69.88
2023-01-22T22:44:40.882Z,69.92
2023-01-22T22:47:14.194Z,69.85
2023-01-22T22:49:47.905Z,69.74
2023-01-22T22:52:21.943Z,69.61
2023-01-22T22:54:55.348Z,69.63
2023-01-22T22:57:28.675Z,69.66
2023-01-22T23:00:03.727Z,69.71
2023-01-22T23:02:37.207Z,69.83
2023-01-22T23:05:12.012Z,69.81
2023-01-22T23:07:45.695Z,69.77
2023-01-22T23:10:30.212Z,69.86
2023-01-22T23:13:04.643Z,69.88
2023-01-22T23:15:38.247Z,69.95
2023-01-22T23:18:12.068Z,69.97
2023-01-22T23:20:45.837Z,70.05
2023-01-22T23:23:19.491Z,70.12
2023-01-22T23:25:52.704Z,70.20
2023-01-22T23:28:26.280Z,70.25
2023-01-22T23:31:01.199Z,70.24
2023-01-22T23:33:35.071Z,70.11
2023-01-22T23:36:11.708Z,70.01
2023-01-22T23:38:45.743Z,70.03
2023-01-22T23:41:20.945Z,70.01
2023-01-22T23:43:54.397Z,69.86
2023-01-22T23:46:30.997Z,69.84
2023-01-22T23:49:05.872Z,69.82
2023-01-22T23:51:41.400Z,69.99
2023-01-22T23:54:15.191Z,70.11
2023-01-22T23:56:48.819Z,70.12
2023-01-22T23:59:23.681Z,70.19
